sensor_id;sensor_type;location;lat;lon;timestamp;temperature;humidity
74384;DHT22;62824;52.994;-3.936;2023-03-04T00:00:33;4.20;90.20
74384;DHT22;62824;52.994;-3.936;2023-03-04T00:02:59;4.30;90.50
74384;DHT22;62824;52.994;-3.936;2023-03-04T00:05:24;4.30;90.60
74384;DHT22;62824;52.994;-3.936;2023-03-04T00:07:50;4.40;90.50
74384;DHT22;62824;52.994;-3.936;2023-03-04T00:10:16;4.30;90.10
74384;DHT22;62824;52.994;-3.936;2023-03-04T00:12:42;4.30;90.20
74384;DHT22;62824;52.994;-3.936;2023-03-04T00:15:08;4.40;89.60
74384;DHT22;62824;52.994;-3.936;2023-03-04T00:17:34;4.30;88.90
74384;DHT22;62824;52.994;-3.936;2023-03-04T00:19:59;4.30;88.90
74384;DHT22;62824;52.994;-3.936;2023-03-04T00:22:25;4.40;90.40
74384;DHT22;62824;52.994;-3.936;2023-03-04T00:24:51;4.40;90.60
74384;DHT22;62824;52.994;-3.936;2023-03-04T00:27:16;4.40;89.20
74384;DHT22;62824;52.994;-3.936;2023-03-04T00:29:42;4.40;88.50
74384;DHT22;62824;52.994;-3.936;2023-03-04T00:32:08;4.40;87.70
74384;DHT22;62824;52.994;-3.936;2023-03-04T00:34:35;4.50;88.70
74384;DHT22;62824;52.994;-3.936;2023-03-04T00:37:03;4.40;86.70
74384;DHT22;62824;52.994;-3.936;2023-03-04T00:39:29;4.50;86.80
74384;DHT22;62824;52.994;-3.936;2023-03-04T00:41:55;4.50;86.60
74384;DHT22;62824;52.994;-3.936;2023-03-04T00:44:21;4.50;87.70
74384;DHT22;62824;52.994;-3.936;2023-03-04T00:46:46;4.50;87.50
74384;DHT22;62824;52.994;-3.936;2023-03-04T00:49:12;4.50;85.40
74384;DHT22;62824;52.994;-3.936;2023-03-04T00:51:38;4.50;85.80
74384;DHT22;62824;52.994;-3.936;2023-03-04T00:54:03;4.50;85.70
74384;DHT22;62824;52.994;-3.936;2023-03-04T00:56:29;4.60;86.30
74384;DHT22;62824;52.994;-3.936;2023-03-04T00:58:55;4.60;86.50
74384;DHT22;62824;52.994;-3.936;2023-03-04T01:01:21;4.60;87.10
74384;DHT22;62824;52.994;-3.936;2023-03-04T01:03:47;4.70;84.10
74384;DHT22;62824;52.994;-3.936;2023-03-04T01:06:13;4.70;84.20
74384;DHT22;62824;52.994;-3.936;2023-03-04T01:08:39;4.70;82.80
74384;DHT22;62824;52.994;-3.936;2023-03-04T01:11:05;4.80;83.10
74384;DHT22;62824;52.994;-3.936;2023-03-04T01:13:31;4.80;82.70
74384;DHT22;62824;52.994;-3.936;2023-03-04T01:15:57;4.80;82.70
74384;DHT22;62824;52.994;-3.936;2023-03-04T01:18:23;4.70;82.90
74384;DHT22;62824;52.994;-3.936;2023-03-04T01:20:50;4.70;83.70
74384;DHT22;62824;52.994;-3.936;2023-03-04T01:23:15;4.70;83.40
74384;DHT22;62824;52.994;-3.936;2023-03-04T01:25:41;4.70;82.70
74384;DHT22;62824;52.994;-3.936;2023-03-04T01:28:07;4.70;84.10
74384;DHT22;62824;52.994;-3.936;2023-03-04T01:30:33;4.80;85.30
74384;DHT22;62824;52.994;-3.936;2023-03-04T01:32:59;4.70;87.30
74384;DHT22;62824;52.994;-3.936;2023-03-04T01:35:24;4.70;86.20
74384;DHT22;62824;52.994;-3.936;2023-03-04T01:37:50;4.70;87.20
74384;DHT22;62824;52.994;-3.936;2023-03-04T01:40:16;4.70;86.80
74384;DHT22;62824;52.994;-3.936;2023-03-04T01:42:42;4.70;87.30
74384;DHT22;62824;52.994;-3.936;2023-03-04T01:45:15;4.70;87.20
74384;DHT22;62824;52.994;-3.936;2023-03-04T01:47:47;4.80;85.80
74384;DHT22;62824;52.994;-3.936;2023-03-04T01:50:40;4.80;85.40
74384;DHT22;62824;52.994;-3.936;2023-03-04T01:53:04;4.70;86.90
74384;DHT22;62824;52.994;-3.936;2023-03-04T01:55:30;4.80;87.80
74384;DHT22;62824;52.994;-3.936;2023-03-04T01:57:56;4.80;87.30
74384;DHT22;62824;52.994;-3.936;2023-03-04T02:00:31;4.70;88.00
74384;DHT22;62824;52.994;-3.936;2023-03-04T02:03:00;4.70;88.30
74384;DHT22;62824;52.994;-3.936;2023-03-04T02:05:27;4.70;90.10
74384;DHT22;62824;52.994;-3.936;2023-03-04T02:07:55;4.70;90.00
74384;DHT22;62824;52.994;-3.936;2023-03-04T02:10:22;4.70;89.50
74384;DHT22;62824;52.994;-3.936;2023-03-04T02:12:48;4.70;90.30
74384;DHT22;62824;52.994;-3.936;2023-03-04T02:15:14;4.70;90.70
74384;DHT22;62824;52.994;-3.936;2023-03-04T02:17:40;4.60;91.00
74384;DHT22;62824;52.994;-3.936;2023-03-04T02:23:02;4.60;91.50
74384;DHT22;62824;52.994;-3.936;2023-03-04T02:28:22;4.60;91.60
74384;DHT22;62824;52.994;-3.936;2023-03-04T02:30:48;4.50;91.10
74384;DHT22;62824;52.994;-3.936;2023-03-04T02:33:16;4.50;91.50
74384;DHT22;62824;52.994;-3.936;2023-03-04T02:35:43;4.50;91.20
74384;DHT22;62824;52.994;-3.936;2023-03-04T02:38:10;4.60;91.30
74384;DHT22;62824;52.994;-3.936;2023-03-04T02:40:38;4.60;91.50
74384;DHT22;62824;52.994;-3.936;2023-03-04T02:43:04;4.50;91.90
74384;DHT22;62824;52.994;-3.936;2023-03-04T02:47:59;4.60;90.70
74384;DHT22;62824;52.994;-3.936;2023-03-04T02:50:27;4.60;90.90
74384;DHT22;62824;52.994;-3.936;2023-03-04T02:52:54;4.70;90.80
74384;DHT22;62824;52.994;-3.936;2023-03-04T02:55:23;4.70;90.90
74384;DHT22;62824;52.994;-3.936;2023-03-04T02:57:50;4.70;91.00
74384;DHT22;62824;52.994;-3.936;2023-03-04T03:00:17;4.80;90.50
74384;DHT22;62824;52.994;-3.936;2023-03-04T03:02:43;4.80;88.90
74384;DHT22;62824;52.994;-3.936;2023-03-04T03:05:12;4.80;88.10
74384;DHT22;62824;52.994;-3.936;2023-03-04T03:07:38;4.90;86.90
74384;DHT22;62824;52.994;-3.936;2023-03-04T03:10:04;4.80;87.80
74384;DHT22;62824;52.994;-3.936;2023-03-04T03:12:30;4.80;88.10
74384;DHT22;62824;52.994;-3.936;2023-03-04T03:14:58;4.70;89.00
74384;DHT22;62824;52.994;-3.936;2023-03-04T03:17:23;4.70;90.40
74384;DHT22;62824;52.994;-3.936;2023-03-04T03:19:49;4.70;90.60
74384;DHT22;62824;52.994;-3.936;2023-03-04T03:22:15;4.80;90.90
74384;DHT22;62824;52.994;-3.936;2023-03-04T03:24:41;4.70;91.30
74384;DHT22;62824;52.994;-3.936;2023-03-04T03:27:06;4.70;91.20
74384;DHT22;62824;52.994;-3.936;2023-03-04T03:29:32;4.70;91.20
74384;DHT22;62824;52.994;-3.936;2023-03-04T03:31:58;4.70;91.80
74384;DHT22;62824;52.994;-3.936;2023-03-04T03:34:35;4.80;91.90
74384;DHT22;62824;52.994;-3.936;2023-03-04T03:37:00;4.80;92.00
74384;DHT22;62824;52.994;-3.936;2023-03-04T03:39:38;4.70;92.80
74384;DHT22;62824;52.994;-3.936;2023-03-04T03:42:04;4.70;92.60
74384;DHT22;62824;52.994;-3.936;2023-03-04T03:44:30;4.80;92.70
74384;DHT22;62824;52.994;-3.936;2023-03-04T03:46:56;4.70;92.50
74384;DHT22;62824;52.994;-3.936;2023-03-04T03:49:22;4.70;92.20
74384;DHT22;62824;52.994;-3.936;2023-03-04T03:51:48;4.70;91.60
74384;DHT22;62824;52.994;-3.936;2023-03-04T03:54:13;4.60;91.50
74384;DHT22;62824;52.994;-3.936;2023-03-04T03:56:39;4.60;91.90
74384;DHT22;62824;52.994;-3.936;2023-03-04T03:59:05;4.60;91.70
74384;DHT22;62824;52.994;-3.936;2023-03-04T04:01:31;4.70;91.70
74384;DHT22;62824;52.994;-3.936;2023-03-04T04:03:58;4.60;91.60
74384;DHT22;62824;52.994;-3.936;2023-03-04T04:06:24;4.60;91.90
74384;DHT22;62824;52.994;-3.936;2023-03-04T04:08:50;4.60;92.40
74384;DHT22;62824;52.994;-3.936;2023-03-04T04:11:16;4.60;92.00
74384;DHT22;62824;52.994;-3.936;2023-03-04T04:13:51;4.60;91.40
74384;DHT22;62824;52.994;-3.936;2023-03-04T04:16:16;4.60;91.30
74384;DHT22;62824;52.994;-3.936;2023-03-04T04:18:42;4.50;91.20
74384;DHT22;62824;52.994;-3.936;2023-03-04T04:21:08;4.50;91.70
74384;DHT22;62824;52.994;-3.936;2023-03-04T04:23:40;4.50;92.00
74384;DHT22;62824;52.994;-3.936;2023-03-04T04:26:06;4.50;92.20
74384;DHT22;62824;52.994;-3.936;2023-03-04T04:28:32;4.40;92.10
74384;DHT22;62824;52.994;-3.936;2023-03-04T04:30:57;4.40;92.30
74384;DHT22;62824;52.994;-3.936;2023-03-04T04:33:29;4.40;93.10
74384;DHT22;62824;52.994;-3.936;2023-03-04T04:35:55;4.40;93.40
74384;DHT22;62824;52.994;-3.936;2023-03-04T04:38:20;4.40;93.00
74384;DHT22;62824;52.994;-3.936;2023-03-04T04:40:46;4.40;92.10
74384;DHT22;62824;52.994;-3.936;2023-03-04T04:43:12;4.40;91.50
74384;DHT22;62824;52.994;-3.936;2023-03-04T04:45:38;4.40;91.50
74384;DHT22;62824;52.994;-3.936;2023-03-04T04:48:04;4.50;92.10
74384;DHT22;62824;52.994;-3.936;2023-03-04T04:50:55;4.40;92.80
74384;DHT22;62824;52.994;-3.936;2023-03-04T04:53:28;4.50;92.90
74384;DHT22;62824;52.994;-3.936;2023-03-04T04:55:54;4.50;93.10
74384;DHT22;62824;52.994;-3.936;2023-03-04T04:58:20;4.50;93.00
74384;DHT22;62824;52.994;-3.936;2023-03-04T05:00:46;4.50;93.00
74384;DHT22;62824;52.994;-3.936;2023-03-04T05:03:11;4.60;92.60
74384;DHT22;62824;52.994;-3.936;2023-03-04T05:05:37;4.60;91.50
74384;DHT22;62824;52.994;-3.936;2023-03-04T05:08:03;4.60;91.10
74384;DHT22;62824;52.994;-3.936;2023-03-04T05:10:54;4.60;91.80
74384;DHT22;62824;52.994;-3.936;2023-03-04T05:13:20;4.60;91.60
74384;DHT22;62824;52.994;-3.936;2023-03-04T05:15:46;4.60;92.00
74384;DHT22;62824;52.994;-3.936;2023-03-04T05:18:12;4.70;92.30
74384;DHT22;62824;52.994;-3.936;2023-03-04T05:20:38;4.70;91.40
74384;DHT22;62824;52.994;-3.936;2023-03-04T05:23:04;4.70;91.90
74384;DHT22;62824;52.994;-3.936;2023-03-04T05:25:45;4.70;91.30
74384;DHT22;62824;52.994;-3.936;2023-03-04T05:28:11;4.70;90.80
74384;DHT22;62824;52.994;-3.936;2023-03-04T05:30:39;4.70;91.60
74384;DHT22;62824;52.994;-3.936;2023-03-04T05:33:05;4.70;92.30
74384;DHT22;62824;52.994;-3.936;2023-03-04T05:35:54;4.70;91.40
74384;DHT22;62824;52.994;-3.936;2023-03-04T05:38:20;4.80;90.90
74384;DHT22;62824;52.994;-3.936;2023-03-04T05:40:47;4.80;89.30
74384;DHT22;62824;52.994;-3.936;2023-03-04T05:43:13;4.80;88.50
74384;DHT22;62824;52.994;-3.936;2023-03-04T05:45:39;4.70;88.20
74384;DHT22;62824;52.994;-3.936;2023-03-04T05:48:07;4.70;86.20
74384;DHT22;62824;52.994;-3.936;2023-03-04T05:50:33;4.70;88.20
74384;DHT22;62824;52.994;-3.936;2023-03-04T05:53:01;4.70;89.10
74384;DHT22;62824;52.994;-3.936;2023-03-04T05:55:27;4.70;90.40
74384;DHT22;62824;52.994;-3.936;2023-03-04T05:57:54;4.70;90.50
74384;DHT22;62824;52.994;-3.936;2023-03-04T06:00:20;4.60;90.50
74384;DHT22;62824;52.994;-3.936;2023-03-04T06:02:46;4.70;90.60
74384;DHT22;62824;52.994;-3.936;2023-03-04T06:05:13;4.70;88.10
74384;DHT22;62824;52.994;-3.936;2023-03-04T06:07:39;4.80;86.70
74384;DHT22;62824;52.994;-3.936;2023-03-04T06:10:06;4.80;85.60
74384;DHT22;62824;52.994;-3.936;2023-03-04T06:12:32;4.80;85.50
74384;DHT22;62824;52.994;-3.936;2023-03-04T06:14:57;4.80;87.30
74384;DHT22;62824;52.994;-3.936;2023-03-04T06:17:23;4.70;87.50
74384;DHT22;62824;52.994;-3.936;2023-03-04T06:19:49;4.70;87.00
74384;DHT22;62824;52.994;-3.936;2023-03-04T06:22:15;4.80;88.10
74384;DHT22;62824;52.994;-3.936;2023-03-04T06:24:41;4.70;86.50
74384;DHT22;62824;52.994;-3.936;2023-03-04T06:27:06;4.80;85.90
74384;DHT22;62824;52.994;-3.936;2023-03-04T06:29:32;4.80;87.00
74384;DHT22;62824;52.994;-3.936;2023-03-04T06:31:58;4.80;85.40
74384;DHT22;62824;52.994;-3.936;2023-03-04T06:34:24;4.80;85.60
74384;DHT22;62824;52.994;-3.936;2023-03-04T06:36:50;4.80;88.90
74384;DHT22;62824;52.994;-3.936;2023-03-04T06:39:16;4.80;88.30
74384;DHT22;62824;52.994;-3.936;2023-03-04T06:41:42;4.80;88.20
74384;DHT22;62824;52.994;-3.936;2023-03-04T06:44:08;4.80;88.00
74384;DHT22;62824;52.994;-3.936;2023-03-04T06:46:34;4.80;89.10
74384;DHT22;62824;52.994;-3.936;2023-03-04T06:49:00;4.80;88.70
74384;DHT22;62824;52.994;-3.936;2023-03-04T06:51:26;4.80;88.50
74384;DHT22;62824;52.994;-3.936;2023-03-04T06:53:53;4.70;89.30
74384;DHT22;62824;52.994;-3.936;2023-03-04T06:56:18;4.70;90.20
74384;DHT22;62824;52.994;-3.936;2023-03-04T06:58:45;4.70;89.60
74384;DHT22;62824;52.994;-3.936;2023-03-04T07:01:15;4.70;90.20
74384;DHT22;62824;52.994;-3.936;2023-03-04T07:03:42;4.70;90.20
74384;DHT22;62824;52.994;-3.936;2023-03-04T07:06:13;4.70;90.30
74384;DHT22;62824;52.994;-3.936;2023-03-04T07:08:39;4.70;90.40
74384;DHT22;62824;52.994;-3.936;2023-03-04T07:11:05;4.70;89.70
74384;DHT22;62824;52.994;-3.936;2023-03-04T07:13:31;4.70;89.90
74384;DHT22;62824;52.994;-3.936;2023-03-04T07:16:00;4.60;89.60
74384;DHT22;62824;52.994;-3.936;2023-03-04T07:18:26;4.70;89.90
74384;DHT22;62824;52.994;-3.936;2023-03-04T07:20:52;4.70;90.00
74384;DHT22;62824;52.994;-3.936;2023-03-04T07:23:19;4.70;89.00
74384;DHT22;62824;52.994;-3.936;2023-03-04T07:25:45;4.70;89.90
74384;DHT22;62824;52.994;-3.936;2023-03-04T07:28:11;4.70;89.40
74384;DHT22;62824;52.994;-3.936;2023-03-04T07:30:37;4.70;88.90
74384;DHT22;62824;52.994;-3.936;2023-03-04T07:33:02;4.70;89.90
74384;DHT22;62824;52.994;-3.936;2023-03-04T07:35:28;4.70;90.10
74384;DHT22;62824;52.994;-3.936;2023-03-04T07:37:54;4.60;90.20
74384;DHT22;62824;52.994;-3.936;2023-03-04T07:40:20;4.60;90.70
74384;DHT22;62824;52.994;-3.936;2023-03-04T07:42:53;4.60;90.80
74384;DHT22;62824;52.994;-3.936;2023-03-04T07:45:20;4.60;90.70
74384;DHT22;62824;52.994;-3.936;2023-03-04T07:47:46;4.60;89.30
74384;DHT22;62824;52.994;-3.936;2023-03-04T07:50:12;4.70;88.60
74384;DHT22;62824;52.994;-3.936;2023-03-04T07:52:39;4.60;86.30
74384;DHT22;62824;52.994;-3.936;2023-03-04T07:55:05;4.60;84.50
74384;DHT22;62824;52.994;-3.936;2023-03-04T07:57:31;4.60;84.50
74384;DHT22;62824;52.994;-3.936;2023-03-04T07:59:57;4.60;84.70
74384;DHT22;62824;52.994;-3.936;2023-03-04T08:02:22;4.60;85.80
74384;DHT22;62824;52.994;-3.936;2023-03-04T08:04:48;4.60;85.70
74384;DHT22;62824;52.994;-3.936;2023-03-04T08:07:14;4.60;86.00
74384;DHT22;62824;52.994;-3.936;2023-03-04T08:09:40;4.60;84.90
74384;DHT22;62824;52.994;-3.936;2023-03-04T08:12:06;4.60;84.70
74384;DHT22;62824;52.994;-3.936;2023-03-04T08:14:32;4.60;84.50
74384;DHT22;62824;52.994;-3.936;2023-03-04T08:16:58;4.60;84.80
74384;DHT22;62824;52.994;-3.936;2023-03-04T08:19:24;4.60;84.00
74384;DHT22;62824;52.994;-3.936;2023-03-04T08:21:50;4.70;83.60
74384;DHT22;62824;52.994;-3.936;2023-03-04T08:24:16;4.70;83.80
74384;DHT22;62824;52.994;-3.936;2023-03-04T08:26:46;4.70;83.10
74384;DHT22;62824;52.994;-3.936;2023-03-04T08:29:17;4.70;83.50
74384;DHT22;62824;52.994;-3.936;2023-03-04T08:31:45;4.70;84.50
74384;DHT22;62824;52.994;-3.936;2023-03-04T08:34:12;4.70;84.00
74384;DHT22;62824;52.994;-3.936;2023-03-04T08:36:40;4.70;83.80
74384;DHT22;62824;52.994;-3.936;2023-03-04T08:39:07;4.70;83.80
74384;DHT22;62824;52.994;-3.936;2023-03-04T08:41:34;4.80;82.40
74384;DHT22;62824;52.994;-3.936;2023-03-04T08:44:00;4.80;81.20
74384;DHT22;62824;52.994;-3.936;2023-03-04T08:46:26;4.80;80.50
74384;DHT22;62824;52.994;-3.936;2023-03-04T08:48:52;4.80;80.20
74384;DHT22;62824;52.994;-3.936;2023-03-04T08:51:18;4.80;79.40
74384;DHT22;62824;52.994;-3.936;2023-03-04T08:53:44;4.80;79.70
74384;DHT22;62824;52.994;-3.936;2023-03-04T08:56:11;4.80;80.20
74384;DHT22;62824;52.994;-3.936;2023-03-04T08:58:38;4.90;79.80
74384;DHT22;62824;52.994;-3.936;2023-03-04T09:01:06;5.00;80.40
74384;DHT22;62824;52.994;-3.936;2023-03-04T09:03:32;5.00;79.30
74384;DHT22;62824;52.994;-3.936;2023-03-04T09:05:58;5.10;78.90
74384;DHT22;62824;52.994;-3.936;2023-03-04T09:08:25;5.10;78.90
74384;DHT22;62824;52.994;-3.936;2023-03-04T09:10:53;5.10;78.00
74384;DHT22;62824;52.994;-3.936;2023-03-04T09:13:20;5.00;78.60
74384;DHT22;62824;52.994;-3.936;2023-03-04T09:15:47;5.10;79.80
74384;DHT22;62824;52.994;-3.936;2023-03-04T09:18:13;5.20;79.30
74384;DHT22;62824;52.994;-3.936;2023-03-04T09:20:43;5.20;78.70
74384;DHT22;62824;52.994;-3.936;2023-03-04T09:23:09;5.20;79.50
74384;DHT22;62824;52.994;-3.936;2023-03-04T09:25:36;5.20;80.20
74384;DHT22;62824;52.994;-3.936;2023-03-04T09:28:03;5.20;81.20
74384;DHT22;62824;52.994;-3.936;2023-03-04T09:30:29;5.20;81.70
74384;DHT22;62824;52.994;-3.936;2023-03-04T09:32:58;5.20;81.70
74384;DHT22;62824;52.994;-3.936;2023-03-04T09:35:24;5.30;81.30
74384;DHT22;62824;52.994;-3.936;2023-03-04T09:37:49;5.30;81.20
74384;DHT22;62824;52.994;-3.936;2023-03-04T09:40:24;5.30;81.80
74384;DHT22;62824;52.994;-3.936;2023-03-04T09:42:54;5.30;81.70
74384;DHT22;62824;52.994;-3.936;2023-03-04T09:45:26;5.30;81.80
74384;DHT22;62824;52.994;-3.936;2023-03-04T09:47:53;5.30;81.80
74384;DHT22;62824;52.994;-3.936;2023-03-04T09:50:20;5.30;82.00
74384;DHT22;62824;52.994;-3.936;2023-03-04T09:55:43;5.30;83.10
74384;DHT22;62824;52.994;-3.936;2023-03-04T09:58:24;5.40;82.80
74384;DHT22;62824;52.994;-3.936;2023-03-04T10:01:00;5.40;83.60
74384;DHT22;62824;52.994;-3.936;2023-03-04T10:03:44;5.40;84.20
74384;DHT22;62824;52.994;-3.936;2023-03-04T10:06:15;5.40;84.10
74384;DHT22;62824;52.994;-3.936;2023-03-04T10:09:03;5.50;84.30
74384;DHT22;62824;52.994;-3.936;2023-03-04T10:11:37;5.50;83.90
74384;DHT22;62824;52.994;-3.936;2023-03-04T10:16:58;5.60;80.90
74384;DHT22;62824;52.994;-3.936;2023-03-04T10:22:00;5.60;79.40
74384;DHT22;62824;52.994;-3.936;2023-03-04T10:24:28;5.50;81.00
74384;DHT22;62824;52.994;-3.936;2023-03-04T10:27:01;5.40;81.20
74384;DHT22;62824;52.994;-3.936;2023-03-04T10:29:31;5.40;83.00
74384;DHT22;62824;52.994;-3.936;2023-03-04T10:31:57;5.40;83.30
74384;DHT22;62824;52.994;-3.936;2023-03-04T10:34:23;5.50;82.50
74384;DHT22;62824;52.994;-3.936;2023-03-04T10:37:02;5.50;81.90
74384;DHT22;62824;52.994;-3.936;2023-03-04T10:39:35;5.50;82.70
74384;DHT22;62824;52.994;-3.936;2023-03-04T10:42:04;5.60;83.00
74384;DHT22;62824;52.994;-3.936;2023-03-04T10:44:32;5.60;81.60
74384;DHT22;62824;52.994;-3.936;2023-03-04T10:46:59;5.50;81.50
74384;DHT22;62824;52.994;-3.936;2023-03-04T10:49:27;5.50;82.60
74384;DHT22;62824;52.994;-3.936;2023-03-04T10:52:17;5.50;84.50
74384;DHT22;62824;52.994;-3.936;2023-03-04T10:54:50;5.50;83.20
74384;DHT22;62824;52.994;-3.936;2023-03-04T10:57:33;5.50;85.20
74384;DHT22;62824;52.994;-3.936;2023-03-04T11:00:01;5.60;82.00
74384;DHT22;62824;52.994;-3.936;2023-03-04T11:02:33;5.60;80.80
74384;DHT22;62824;52.994;-3.936;2023-03-04T11:07:41;5.80;76.80
74384;DHT22;62824;52.994;-3.936;2023-03-04T11:12:59;5.80;80.10
74384;DHT22;62824;52.994;-3.936;2023-03-04T11:15:29;5.80;79.90
74384;DHT22;62824;52.994;-3.936;2023-03-04T11:18:02;6.00;78.20
74384;DHT22;62824;52.994;-3.936;2023-03-04T11:20:38;6.10;77.60
74384;DHT22;62824;52.994;-3.936;2023-03-04T11:23:39;6.00;77.70
74384;DHT22;62824;52.994;-3.936;2023-03-04T11:26:12;6.10;78.40
74384;DHT22;62824;52.994;-3.936;2023-03-04T11:28:46;5.90;75.40
74384;DHT22;62824;52.994;-3.936;2023-03-04T11:31:22;5.90;77.30
74384;DHT22;62824;52.994;-3.936;2023-03-04T11:37:11;5.90;78.50
74384;DHT22;62824;52.994;-3.936;2023-03-04T11:39:43;6.00;80.50
74384;DHT22;62824;52.994;-3.936;2023-03-04T11:43:00;6.10;79.90
74384;DHT22;62824;52.994;-3.936;2023-03-04T11:45:12;5.90;81.70
74384;DHT22;62824;52.994;-3.936;2023-03-04T11:47:59;5.90;81.80
74384;DHT22;62824;52.994;-3.936;2023-03-04T11:50:36;5.90;79.80
74384;DHT22;62824;52.994;-3.936;2023-03-04T12:01:09;5.90;80.80
74384;DHT22;62824;52.994;-3.936;2023-03-04T12:12:46;5.90;78.80
74384;DHT22;62824;52.994;-3.936;2023-03-04T12:18:06;5.80;80.70
74384;DHT22;62824;52.994;-3.936;2023-03-04T12:23:44;5.80;81.60
74384;DHT22;62824;52.994;-3.936;2023-03-04T12:34:59;6.00;78.70
74384;DHT22;62824;52.994;-3.936;2023-03-04T12:37:47;6.10;79.40
74384;DHT22;62824;52.994;-3.936;2023-03-04T12:40:37;6.00;79.10
74384;DHT22;62824;52.994;-3.936;2023-03-04T12:45:58;5.90;78.20
74384;DHT22;62824;52.994;-3.936;2023-03-04T12:49:01;6.00;77.70
74384;DHT22;62824;52.994;-3.936;2023-03-04T12:51:53;6.00;76.40
74384;DHT22;62824;52.994;-3.936;2023-03-04T12:54:38;6.10;74.50
74384;DHT22;62824;52.994;-3.936;2023-03-04T12:59:38;6.20;74.00
74384;DHT22;62824;52.994;-3.936;2023-03-04T13:07:34;6.40;70.20
74384;DHT22;62824;52.994;-3.936;2023-03-04T13:10:15;6.30;71.10
74384;DHT22;62824;52.994;-3.936;2023-03-04T13:12:57;6.10;72.30
74384;DHT22;62824;52.994;-3.936;2023-03-04T13:17:49;6.00;72.10
74384;DHT22;62824;52.994;-3.936;2023-03-04T13:22:56;6.20;71.80
74384;DHT22;62824;52.994;-3.936;2023-03-04T13:25:43;6.30;70.30
74384;DHT22;62824;52.994;-3.936;2023-03-04T13:36:02;6.20;72.10
74384;DHT22;62824;52.994;-3.936;2023-03-04T13:41:23;6.00;71.70
74384;DHT22;62824;52.994;-3.936;2023-03-04T13:43:59;6.10;73.40
74384;DHT22;62824;52.994;-3.936;2023-03-04T13:51:37;6.10;71.10
74384;DHT22;62824;52.994;-3.936;2023-03-04T13:54:31;6.00;71.90
74384;DHT22;62824;52.994;-3.936;2023-03-04T13:59:29;6.30;70.20
74384;DHT22;62824;52.994;-3.936;2023-03-04T14:02:11;6.30;70.40
74384;DHT22;62824;52.994;-3.936;2023-03-04T14:07:20;6.20;70.30
74384;DHT22;62824;52.994;-3.936;2023-03-04T14:12:20;6.20;73.30
74384;DHT22;62824;52.994;-3.936;2023-03-04T14:14:51;6.30;72.80
74384;DHT22;62824;52.994;-3.936;2023-03-04T14:17:29;6.30;71.10
74384;DHT22;62824;52.994;-3.936;2023-03-04T14:19:56;6.20;72.80
74384;DHT22;62824;52.994;-3.936;2023-03-04T14:22:29;6.20;72.40
74384;DHT22;62824;52.994;-3.936;2023-03-04T14:27:20;6.30;70.60
74384;DHT22;62824;52.994;-3.936;2023-03-04T14:29:54;6.30;69.60
74384;DHT22;62824;52.994;-3.936;2023-03-04T14:32:20;6.40;70.30
74384;DHT22;62824;52.994;-3.936;2023-03-04T14:34:49;6.60;70.20
74384;DHT22;62824;52.994;-3.936;2023-03-04T14:37:23;6.50;68.60
74384;DHT22;62824;52.994;-3.936;2023-03-04T14:39:56;6.50;67.60
74384;DHT22;62824;52.994;-3.936;2023-03-04T14:42:26;6.50;68.30
74384;DHT22;62824;52.994;-3.936;2023-03-04T14:44:57;6.50;67.60
74384;DHT22;62824;52.994;-3.936;2023-03-04T14:50:16;6.50;65.40
74384;DHT22;62824;52.994;-3.936;2023-03-04T14:52:45;6.50;64.60
74384;DHT22;62824;52.994;-3.936;2023-03-04T14:57:41;6.40;62.60
74384;DHT22;62824;52.994;-3.936;2023-03-04T15:00:25;6.40;62.40
74384;DHT22;62824;52.994;-3.936;2023-03-04T15:02:54;6.30;63.60
74384;DHT22;62824;52.994;-3.936;2023-03-04T15:05:32;6.40;65.30
74384;DHT22;62824;52.994;-3.936;2023-03-04T15:08:04;6.40;63.80
74384;DHT22;62824;52.994;-3.936;2023-03-04T15:10:33;6.60;61.50
74384;DHT22;62824;52.994;-3.936;2023-03-04T15:13:02;6.50;61.00
74384;DHT22;62824;52.994;-3.936;2023-03-04T15:15:38;6.60;62.00
74384;DHT22;62824;52.994;-3.936;2023-03-04T15:18:25;6.60;60.20
74384;DHT22;62824;52.994;-3.936;2023-03-04T15:23:22;6.40;59.40
74384;DHT22;62824;52.994;-3.936;2023-03-04T15:25:56;6.40;59.30
74384;DHT22;62824;52.994;-3.936;2023-03-04T15:28:23;6.50;58.20
74384;DHT22;62824;52.994;-3.936;2023-03-04T15:30:50;6.70;58.10
74384;DHT22;62824;52.994;-3.936;2023-03-04T15:33:16;6.80;58.40
74384;DHT22;62824;52.994;-3.936;2023-03-04T15:35:52;6.80;56.90
74384;DHT22;62824;52.994;-3.936;2023-03-04T15:38:19;6.90;57.50
74384;DHT22;62824;52.994;-3.936;2023-03-04T15:40:45;6.90;57.00
74384;DHT22;62824;52.994;-3.936;2023-03-04T15:43:14;6.80;55.60
74384;DHT22;62824;52.994;-3.936;2023-03-04T15:45:41;6.70;55.90
74384;DHT22;62824;52.994;-3.936;2023-03-04T15:48:10;6.70;56.70
74384;DHT22;62824;52.994;-3.936;2023-03-04T15:53:17;6.40;58.50
74384;DHT22;62824;52.994;-3.936;2023-03-04T15:55:44;6.50;59.30
74384;DHT22;62824;52.994;-3.936;2023-03-04T15:58:11;6.50;58.80
74384;DHT22;62824;52.994;-3.936;2023-03-04T16:00:37;6.50;58.80
74384;DHT22;62824;52.994;-3.936;2023-03-04T16:03:03;6.40;58.50
74384;DHT22;62824;52.994;-3.936;2023-03-04T16:05:30;6.40;59.60
74384;DHT22;62824;52.994;-3.936;2023-03-04T16:07:56;6.60;60.10
74384;DHT22;62824;52.994;-3.936;2023-03-04T16:10:26;6.60;59.70
74384;DHT22;62824;52.994;-3.936;2023-03-04T16:12:53;6.70;59.70
74384;DHT22;62824;52.994;-3.936;2023-03-04T16:15:24;6.70;58.90
74384;DHT22;62824;52.994;-3.936;2023-03-04T16:17:50;6.70;58.90
74384;DHT22;62824;52.994;-3.936;2023-03-04T16:20:20;6.80;58.30
74384;DHT22;62824;52.994;-3.936;2023-03-04T16:22:48;6.70;57.60
74384;DHT22;62824;52.994;-3.936;2023-03-04T16:25:16;6.70;58.80
74384;DHT22;62824;52.994;-3.936;2023-03-04T16:27:43;6.70;59.00
74384;DHT22;62824;52.994;-3.936;2023-03-04T16:30:14;6.70;58.90
74384;DHT22;62824;52.994;-3.936;2023-03-04T16:32:40;6.70;59.80
74384;DHT22;62824;52.994;-3.936;2023-03-04T16:35:06;6.70;58.30
74384;DHT22;62824;52.994;-3.936;2023-03-04T16:37:32;6.60;58.80
74384;DHT22;62824;52.994;-3.936;2023-03-04T16:39:58;6.50;60.40
74384;DHT22;62824;52.994;-3.936;2023-03-04T16:42:25;6.50;60.30
74384;DHT22;62824;52.994;-3.936;2023-03-04T16:44:52;6.40;59.70
74384;DHT22;62824;52.994;-3.936;2023-03-04T16:47:20;6.50;60.90
74384;DHT22;62824;52.994;-3.936;2023-03-04T16:49:47;6.50;60.10
74384;DHT22;62824;52.994;-3.936;2023-03-04T16:52:30;6.50;61.90
74384;DHT22;62824;52.994;-3.936;2023-03-04T16:54:57;6.50;61.40
74384;DHT22;62824;52.994;-3.936;2023-03-04T16:57:23;6.50;61.00
74384;DHT22;62824;52.994;-3.936;2023-03-04T16:59:52;6.40;61.90
74384;DHT22;62824;52.994;-3.936;2023-03-04T17:02:20;6.40;60.90
74384;DHT22;62824;52.994;-3.936;2023-03-04T17:04:47;6.50;60.70
74384;DHT22;62824;52.994;-3.936;2023-03-04T17:07:14;6.50;60.60
74384;DHT22;62824;52.994;-3.936;2023-03-04T17:09:40;6.30;61.40
74384;DHT22;62824;52.994;-3.936;2023-03-04T17:12:09;6.40;63.00
74384;DHT22;62824;52.994;-3.936;2023-03-04T17:14:35;6.40;60.70
74384;DHT22;62824;52.994;-3.936;2023-03-04T17:17:02;6.30;61.00
74384;DHT22;62824;52.994;-3.936;2023-03-04T17:19:31;6.20;61.70
74384;DHT22;62824;52.994;-3.936;2023-03-04T17:22:00;6.10;60.90
74384;DHT22;62824;52.994;-3.936;2023-03-04T17:24:27;6.00;61.40
74384;DHT22;62824;52.994;-3.936;2023-03-04T17:26:56;6.10;62.20
74384;DHT22;62824;52.994;-3.936;2023-03-04T17:29:22;6.10;62.50